Time;durP1;ratioP1;P1;durP2;ratioP2;P2;SDS_P1;SDS_P2;PMS_P1;PMS_P2;Temp;Humidity;BMP_temperature;BMP_pressure;BME280_temperature;BME280_humidity;BME280_pressure;Samples;Min_cycle;Max_cycle;Signal;HPM_P1;HPM_P2
2021/01/09 00:01:38;;;;;;;0.80;0.80;;;-1.80;99.90;;;;;;5015135;28;20031;-72
2021/01/09 00:04:05;;;;;;;3.15;2.33;;;-1.80;99.90;;;;;;5015456;28;20417;-72
2021/01/09 00:06:40;;;;;;;3.60;0.98;;;-1.70;99.90;;;;;;5018629;28;20017;-71
2021/01/09 00:09:07;;;;;;;1.08;1.02;;;-1.70;99.90;;;;;;5016650;28;20049;-72
2021/01/09 00:11:33;;;;;;;1.58;1.45;;;-1.70;99.90;;;;;;5011474;28;20024;-71
2021/01/09 00:13:59;;;;;;;0.35;0.35;;;-1.80;99.90;;;;;;5016722;28;20030;-71
2021/01/09 00:16:24;;;;;;;0.97;0.77;;;-1.80;99.90;;;;;;5016507;28;20033;-71
2021/01/09 00:18:52;;;;;;;3.20;1.67;;;-1.70;99.90;;;;;;5013318;28;20317;-72
2021/01/09 00:21:18;;;;;;;0.70;0.70;;;-1.60;99.90;;;;;;5013365;28;20022;-71
2021/01/09 00:23:43;;;;;;;1.77;1.67;;;-1.70;99.90;;;;;;5016611;28;20041;-71
2021/01/09 00:26:09;;;;;;;1.10;1.10;;;-1.70;99.90;;;;;;5014508;28;20037;-72
2021/01/09 00:28:35;;;;;;;0.20;0.20;;;-1.70;99.90;;;;;;5018474;28;20045;-71
2021/01/09 00:31:01;;;;;;;0.40;0.40;;;-1.70;99.90;;;;;;5020474;28;20263;-71
2021/01/09 00:33:27;;;;;;;1.13;1.13;;;-1.70;99.90;;;;;;5007920;28;20049;-72
2021/01/09 00:35:56;;;;;;;0.77;0.77;;;-1.70;99.90;;;;;;5023910;28;20029;-71
2021/01/09 00:38:23;;;;;;;2.05;1.85;;;-1.80;99.90;;;;;;5016022;28;20167;-72
2021/01/09 00:40:49;;;;;;;0.63;0.63;;;-1.90;99.90;;;;;;5016248;28;20030;-70
2021/01/09 00:43:15;;;;;;;2.58;1.63;;;-1.90;99.90;;;;;;5004715;28;20037;-71
2021/01/09 00:45:40;;;;;;;1.37;1.27;;;-2.00;99.90;;;;;;5014937;28;20057;-71
2021/01/09 00:48:06;;;;;;;1.67;1.57;;;-2.10;99.90;;;;;;5013144;28;20431;-69
2021/01/09 00:50:32;;;;;;;5.70;1.10;;;-2.10;99.90;;;;;;5016304;28;20313;-70
2021/01/09 00:52:58;;;;;;;0.80;0.80;;;-2.10;99.90;;;;;;5016502;28;20096;-71
2021/01/09 00:55:23;;;;;;;3.90;1.10;;;-2.10;99.90;;;;;;5030601;28;20324;-71
2021/01/09 00:57:49;;;;;;;1.23;1.10;;;-2.10;99.90;;;;;;5017500;28;20056;-71
2021/01/09 01:00:15;;;;;;;0.43;0.43;;;-2.10;99.90;;;;;;5017063;28;20061;-72
2021/01/09 01:02:41;;;;;;;0.82;0.82;;;-2.10;99.90;;;;;;5016164;28;20393;-71
2021/01/09 01:05:09;;;;;;;0.80;0.80;;;-2.10;99.90;;;;;;5015375;28;20053;-71
2021/01/09 01:07:35;;;;;;;3.50;1.35;;;-2.10;99.90;;;;;;5015895;28;20091;-70
2021/01/09 01:10:03;;;;;;;3.67;1.67;;;-2.00;99.90;;;;;;5018316;28;20424;-72
2021/01/09 01:12:29;;;;;;;1.77;1.67;;;-2.00;99.90;;;;;;5034175;28;20036;-71
2021/01/09 01:14:54;;;;;;;0.67;0.67;;;-1.90;99.90;;;;;;5017450;28;20108;-72
2021/01/09 01:17:20;;;;;;;1.10;1.10;;;-2.00;99.90;;;;;;5032684;28;20034;-70
2021/01/09 01:19:46;;;;;;;1.60;1.17;;;-1.90;99.90;;;;;;5017090;28;20440;-69
2021/01/09 01:22:11;;;;;;;1.27;1.17;;;-2.00;99.90;;;;;;5028321;28;20034;-69
2021/01/09 01:24:38;;;;;;;1.80;1.67;;;-2.10;99.90;;;;;;5018662;28;20112;-69
2021/01/09 01:27:03;;;;;;;2.28;2.10;;;-2.10;99.90;;;;;;5014876;28;20413;-69
2021/01/09 01:29:29;;;;;;;1.57;1.47;;;-2.10;99.90;;;;;;5010197;28;20067;-71
2021/01/09 01:31:58;;;;;;;1.17;1.07;;;-2.20;99.90;;;;;;5021794;28;20038;-70
2021/01/09 01:34:24;;;;;;;0.68;0.68;;;-2.20;99.90;;;;;;5022526;28;20052;-69
2021/01/09 01:36:50;;;;;;;2.90;1.17;;;-2.20;99.90;;;;;;5019742;28;20441;-71
2021/01/09 01:39:15;;;;;;;1.60;1.50;;;-2.20;99.90;;;;;;5014614;28;20037;-69
2021/01/09 01:41:42;;;;;;;0.40;0.40;;;-2.10;99.90;;;;;;5017239;28;20460;-69
2021/01/09 01:44:08;;;;;;;1.95;1.85;;;-2.10;99.90;;;;;;5005003;28;20116;-70
2021/01/09 01:46:33;;;;;;;2.27;2.07;;;-2.10;99.90;;;;;;5013419;28;20117;-70
2021/01/09 01:48:59;;;;;;;1.47;1.37;;;-2.10;99.90;;;;;;5014727;28;20496;-69
2021/01/09 01:51:25;;;;;;;2.63;2.47;;;-2.10;99.90;;;;;;5018122;28;20080;-69
2021/01/09 01:53:54;;;;;;;0.98;0.98;;;-2.00;99.90;;;;;;5007132;28;20040;-69
2021/01/09 01:56:23;;;;;;;2.10;1.10;;;-2.00;99.90;;;;;;5014130;28;20061;-71
2021/01/09 01:58:49;;;;;;;2.75;2.25;;;-2.00;99.90;;;;;;5016222;28;20061;-69
2021/01/09 02:01:16;;;;;;;0.60;0.60;;;-2.00;99.90;;;;;;5014503;28;20062;-71
2021/01/09 02:03:42;;;;;;;2.00;1.40;;;-2.00;99.90;;;;;;5017290;28;20030;-70
2021/01/09 02:06:15;;;;;;;1.03;1.00;;;-2.10;99.90;;;;;;5018184;28;20087;-71
2021/01/09 02:08:49;;;;;;;0.50;0.50;;;-2.10;99.90;;;;;;5016987;28;20033;-69
2021/01/09 02:11:29;;;;;;;0.73;0.73;;;-2.10;99.90;;;;;;5018148;28;20303;-68
2021/01/09 02:14:02;;;;;;;0.60;0.60;;;-2.10;99.90;;;;;;5015509;28;20487;-69
2021/01/09 02:16:30;;;;;;;4.63;0.95;;;-2.20;99.90;;;;;;5012828;28;20024;-71
2021/01/09 02:18:56;;;;;;;0.68;0.63;;;-2.20;99.90;;;;;;5011160;28;20029;-70
2021/01/09 02:21:40;;;;;;;1.70;0.98;;;-2.30;99.90;;;;;;5014049;28;20033;-70
2021/01/09 02:24:13;;;;;;;2.13;1.95;;;-2.30;99.90;;;;;;5012006;28;20030;-69
2021/01/09 02:26:40;;;;;;;1.10;1.10;;;-2.30;99.90;;;;;;5028863;28;20135;-71
2021/01/09 02:29:06;;;;;;;2.65;1.15;;;-2.30;99.90;;;;;;5012122;28;20034;-71
2021/01/09 02:31:37;;;;;;;1.60;1.50;;;-2.20;99.90;;;;;;5013924;28;20030;-70
2021/01/09 02:34:05;;;;;;;0.70;0.70;;;-2.20;99.90;;;;;;5007374;28;20084;-68
2021/01/09 02:36:31;;;;;;;2.40;2.20;;;-2.30;99.90;;;;;;5021061;28;20057;-70
2021/01/09 02:38:57;;;;;;;1.45;1.35;;;-2.30;99.90;;;;;;5023726;28;20095;-70
2021/01/09 02:41:24;;;;;;;1.60;0.90;;;-2.30;99.90;;;;;;5012281;28;20030;-70
2021/01/09 02:43:50;;;;;;;2.47;1.70;;;-2.20;99.90;;;;;;5009644;28;20018;-69
2021/01/09 02:46:16;;;;;;;2.20;1.47;;;-2.30;99.90;;;;;;5013002;28;20032;-69
2021/01/09 02:48:41;;;;;;;2.57;2.37;;;-2.30;99.90;;;;;;5013341;28;20052;-70
2021/01/09 02:51:07;;;;;;;1.83;1.73;;;-2.30;99.90;;;;;;5009661;28;20439;-71
2021/01/09 02:53:33;;;;;;;1.20;1.13;;;-2.30;99.90;;;;;;5004341;28;20030;-69
2021/01/09 02:55:58;;;;;;;1.87;1.70;;;-2.30;99.90;;;;;;5012170;28;20026;-69
2021/01/09 02:58:24;;;;;;;2.70;2.30;;;-2.30;99.90;;;;;;5011534;28;20041;-70
2021/01/09 03:00:50;;;;;;;1.83;1.73;;;-2.30;99.90;;;;;;5013576;28;20033;-70
2021/01/09 03:03:15;;;;;;;1.97;1.80;;;-2.30;99.90;;;;;;5001888;28;20033;-69
2021/01/09 03:05:41;;;;;;;1.80;1.70;;;-2.30;99.90;;;;;;5020403;28;20080;-71
2021/01/09 03:08:07;;;;;;;1.37;1.30;;;-2.30;99.90;;;;;;5013054;28;20053;-71
2021/01/09 03:10:32;;;;;;;2.00;1.47;;;-2.20;99.90;;;;;;5022078;28;20022;-70
2021/01/09 03:12:58;;;;;;;5.70;3.47;;;-2.20;99.90;;;;;;5012366;28;20171;-71
2021/01/09 03:15:24;;;;;;;1.53;1.43;;;-2.20;99.90;;;;;;5013684;28;20029;-70
2021/01/09 03:17:50;;;;;;;0.93;0.93;;;-2.20;99.90;;;;;;5020001;28;20417;-70
2021/01/09 03:20:15;;;;;;;3.00;1.77;;;-2.20;99.90;;;;;;5009650;28;20041;-69
2021/01/09 03:22:42;;;;;;;2.03;1.77;;;-2.20;99.90;;;;;;5013548;28;20341;-68
2021/01/09 03:25:09;;;;;;;1.35;1.25;;;-2.30;99.90;;;;;;5012439;28;20119;-68
2021/01/09 03:27:34;;;;;;;1.55;1.45;;;-2.30;99.90;;;;;;5010980;28;20050;-69
2021/01/09 03:30:00;;;;;;;1.13;1.13;;;-2.30;99.90;;;;;;5014118;28;20108;-69
2021/01/09 03:32:26;;;;;;;0.67;0.67;;;-2.30;99.90;;;;;;5013568;28;20028;-69
2021/01/09 03:34:51;;;;;;;5.23;1.20;;;-2.40;99.90;;;;;;5013662;28;20037;-69
2021/01/09 03:37:17;;;;;;;1.00;1.00;;;-2.30;99.90;;;;;;5013812;28;20045;-68
2021/01/09 03:39:43;;;;;;;1.10;1.10;;;-2.40;99.90;;;;;;5011436;28;20036;-69
2021/01/09 03:42:09;;;;;;;3.87;2.77;;;-2.40;99.90;;;;;;5011139;28;20064;-70
2021/01/09 03:44:34;;;;;;;3.90;2.20;;;-2.50;99.90;;;;;;5013501;28;20040;-70
2021/01/09 03:47:00;;;;;;;3.30;2.00;;;-2.50;99.90;;;;;;5016234;28;20026;-69
2021/01/09 03:49:26;;;;;;;2.57;2.37;;;-2.40;99.90;;;;;;5017928;28;20417;-69
2021/01/09 03:51:51;;;;;;;1.23;1.23;;;-2.50;99.90;;;;;;5016679;28;20032;-70
2021/01/09 03:54:17;;;;;;;8.20;1.23;;;-2.40;99.90;;;;;;5016536;28;20029;-68
2021/01/09 03:56:42;;;;;;;12.37;4.90;;;-2.40;99.90;;;;;;5017672;28;20109;-72
2021/01/09 03:59:08;;;;;;;4.13;1.47;;;-2.50;99.90;;;;;;5014204;28;20026;-71
2021/01/09 04:01:34;;;;;;;4.40;2.73;;;-2.50;99.90;;;;;;5011482;28;20034;-69
2021/01/09 04:04:00;;;;;;;1.03;1.03;;;-2.50;99.90;;;;;;4998680;28;20582;-68
2021/01/09 04:06:26;;;;;;;2.33;1.27;;;-2.50;99.90;;;;;;5013662;28;20022;-71
2021/01/09 04:08:51;;;;;;;0.50;0.50;;;-2.50;99.90;;;;;;5023375;28;20045;-69
2021/01/09 04:11:17;;;;;;;1.00;1.00;;;-2.50;99.90;;;;;;5016183;28;20021;-69
2021/01/09 04:13:43;;;;;;;5.43;3.07;;;-2.50;99.90;;;;;;5007339;28;20056;-70
2021/01/09 04:16:08;;;;;;;3.47;2.47;;;-2.50;99.90;;;;;;5016734;28;20125;-69
2021/01/09 04:18:34;;;;;;;11.53;2.43;;;-2.40;99.90;;;;;;5014556;28;20068;-69
2021/01/09 04:21:00;;;;;;;1.27;1.17;;;-2.50;99.90;;;;;;5015330;28;20033;-71
2021/01/09 04:23:25;;;;;;;1.47;1.37;;;-2.40;99.90;;;;;;5009176;28;20129;-69
2021/01/09 04:25:51;;;;;;;1.53;1.43;;;-2.50;99.90;;;;;;5016395;28;20034;-69
2021/01/09 04:28:17;;;;;;;1.67;1.53;;;-2.50;99.90;;;;;;5026512;28;20108;-68
2021/01/09 04:30:42;;;;;;;0.80;0.80;;;-2.60;99.90;;;;;;5016188;28;20071;-69
2021/01/09 04:33:08;;;;;;;1.40;1.30;;;-2.50;99.90;;;;;;5017801;28;20022;-68
2021/01/09 04:35:34;;;;;;;1.43;1.33;;;-2.60;99.90;;;;;;5015392;28;20076;-69
2021/01/09 04:37:59;;;;;;;1.17;1.17;;;-2.60;99.90;;;;;;5015760;28;20084;-69
2021/01/09 04:40:25;;;;;;;0.83;0.83;;;-2.60;99.90;;;;;;5016105;28;20030;-70
2021/01/09 04:42:51;;;;;;;0.40;0.40;;;-2.70;99.90;;;;;;5016363;28;20025;-68
2021/01/09 04:45:17;;;;;;;4.57;2.00;;;-2.70;99.90;;;;;;5030606;28;20464;-70
2021/01/09 04:47:43;;;;;;;1.33;1.30;;;-2.70;99.90;;;;;;5016478;28;20029;-68
2021/01/09 04:50:10;;;;;;;1.33;1.30;;;-2.60;99.90;;;;;;5014143;28;20121;-70
2021/01/09 04:52:37;;;;;;;2.70;2.05;;;-2.60;99.90;;;;;;5014435;28;20026;-68
2021/01/09 04:55:03;;;;;;;5.75;2.63;;;-2.60;99.90;;;;;;5015693;28;20029;-69
2021/01/09 04:57:31;;;;;;;2.13;1.92;;;-2.60;99.90;;;;;;5017238;28;20092;-69
2021/01/09 04:59:57;;;;;;;1.15;0.90;;;-2.60;99.90;;;;;;5015501;28;20425;-69
2021/01/09 05:02:23;;;;;;;1.57;1.47;;;-2.60;99.90;;;;;;5015141;28;20022;-68
2021/01/09 05:04:49;;;;;;;1.70;1.58;;;-2.60;99.90;;;;;;5009305;28;20023;-69
2021/01/09 05:07:15;;;;;;;1.40;1.30;;;-2.70;99.90;;;;;;5012453;28;20034;-71
2021/01/09 05:09:43;;;;;;;1.70;1.60;;;-2.70;99.90;;;;;;5016302;28;20038;-69
2021/01/09 05:12:09;;;;;;;1.23;1.17;;;-2.70;99.90;;;;;;5016044;28;20022;-71
2021/01/09 05:14:35;;;;;;;2.85;2.35;;;-2.80;99.90;;;;;;5004603;28;20547;-68
2021/01/09 05:17:02;;;;;;;0.90;0.90;;;-2.80;99.90;;;;;;5004232;28;20332;-70
2021/01/09 05:19:31;;;;;;;2.08;1.88;;;-2.80;99.90;;;;;;5014419;28;20263;-69
2021/01/09 05:22:00;;;;;;;1.40;1.33;;;-2.70;99.90;;;;;;5025577;28;20058;-69
2021/01/09 05:24:26;;;;;;;1.67;1.58;;;-2.70;99.90;;;;;;5013917;28;20065;-70
2021/01/09 05:26:55;;;;;;;3.53;2.10;;;-2.80;99.90;;;;;;5013400;28;20068;-69
2021/01/09 05:29:21;;;;;;;1.45;1.35;;;-2.80;99.90;;;;;;5015932;28;20030;-69
2021/01/09 05:31:48;;;;;;;0.60;0.60;;;-2.80;99.90;;;;;;5013670;28;20042;-69
2021/01/09 05:34:14;;;;;;;1.30;1.20;;;-2.70;99.90;;;;;;5015745;28;20049;-69
2021/01/09 05:36:41;;;;;;;2.40;1.73;;;-2.80;99.90;;;;;;5013446;28;20056;-68
2021/01/09 05:39:07;;;;;;;1.35;1.25;;;-2.80;99.90;;;;;;5018960;28;20441;-69
2021/01/09 05:41:33;;;;;;;0.90;0.90;;;-2.90;99.90;;;;;;5017359;28;20122;-69
2021/01/09 05:44:04;;;;;;;1.73;1.63;;;-2.90;99.90;;;;;;5013951;28;20108;-68
2021/01/09 05:46:34;;;;;;;8.23;2.15;;;-2.80;99.90;;;;;;5018094;28;20049;-68
2021/01/09 05:49:01;;;;;;;1.17;0.95;;;-2.80;99.90;;;;;;5017704;28;20137;-70
2021/01/09 05:51:28;;;;;;;1.55;1.23;;;-2.80;99.90;;;;;;5016388;28;20101;-70
2021/01/09 05:53:54;;;;;;;2.17;1.92;;;-2.80;99.90;;;;;;5017377;28;20353;-68
2021/01/09 05:56:23;;;;;;;0.30;0.30;;;-2.80;99.90;;;;;;5017827;28;20100;-68
2021/01/09 05:58:54;;;;;;;0.60;0.60;;;-2.80;99.90;;;;;;5030479;28;20275;-68
2021/01/09 06:01:28;;;;;;;13.13;1.50;;;-2.80;99.90;;;;;;5019245;28;20029;-70
2021/01/09 06:04:06;;;;;;;1.20;1.13;;;-2.80;99.90;;;;;;5017944;28;20065;-69
2021/01/09 06:06:32;;;;;;;1.52;1.42;;;-2.70;99.90;;;;;;5018471;28;20361;-68
2021/01/09 06:09:00;;;;;;;1.10;1.03;;;-2.80;99.90;;;;;;5028849;28;20034;-69
2021/01/09 06:11:35;;;;;;;1.10;1.10;;;-2.70;99.90;;;;;;5018124;28;20126;-68
2021/01/09 06:14:02;;;;;;;0.75;0.75;;;-2.80;99.90;;;;;;5034083;28;20053;-69
2021/01/09 06:16:30;;;;;;;2.67;1.13;;;-2.80;99.90;;;;;;5001866;28;20032;-71
2021/01/09 06:18:57;;;;;;;1.23;1.17;;;-2.90;99.90;;;;;;5028608;28;20033;-68
2021/01/09 06:21:24;;;;;;;;;;;-3.00;99.90;;;;;;5014275;28;20083;-70
2021/01/09 06:23:51;;;;;;;;;;;-3.00;99.90;;;;;;5005168;28;19917;-69
2021/01/09 06:26:18;;;;;;;0.50;0.50;;;-2.90;99.90;;;;;;5012590;28;19913;-69
2021/01/09 06:28:50;;;;;;;1.80;1.67;;;-2.90;99.90;;;;;;5014205;28;20044;-69
2021/01/09 06:31:20;;;;;;;1.63;1.52;;;-2.80;99.90;;;;;;5023658;28;20033;-70
2021/01/09 06:33:49;;;;;;;5.80;1.58;;;-2.90;99.90;;;;;;5020465;28;20490;-70
2021/01/09 06:36:15;;;;;;;0.88;0.88;;;-2.70;99.90;;;;;;5020131;28;20034;-69
2021/01/09 06:38:49;;;;;;;1.85;1.75;;;-2.70;99.90;;;;;;5022327;28;20608;-69
2021/01/09 06:41:16;;;;;;;2.13;1.52;;;-2.70;99.90;;;;;;5022488;28;20422;-69
2021/01/09 06:43:51;;;;;;;0.90;0.90;;;-2.70;99.90;;;;;;5021410;28;20116;-68
2021/01/09 06:46:38;;;;;;;7.93;2.35;;;-2.60;99.90;;;;;;5018341;28;20120;-68
2021/01/09 06:49:04;;;;;;;1.15;0.80;;;-2.70;99.90;;;;;;5017283;28;20475;-69
2021/01/09 06:51:35;;;;;;;0.67;0.67;;;-2.70;99.90;;;;;;5012080;28;20026;-68
2021/01/09 06:54:23;;;;;;;1.50;1.02;;;-2.60;99.90;;;;;;5012947;28;20061;-69
2021/01/09 06:57:10;;;;;;;0.68;0.68;;;-2.70;99.90;;;;;;5010355;28;20668;-69
2021/01/09 06:59:39;;;;;;;1.85;1.75;;;-2.60;99.90;;;;;;5029189;28;20038;-69
2021/01/09 07:02:23;;;;;;;0.95;0.95;;;-2.70;99.90;;;;;;5014324;28;20034;-68
2021/01/09 07:04:49;;;;;;;1.63;1.42;;;-2.70;99.90;;;;;;5012668;28;20026;-69
2021/01/09 07:07:48;;;;;;;2.60;2.40;;;-2.70;99.90;;;;;;5012384;28;20022;-68
2021/01/09 07:10:19;;;;;;;1.10;1.10;;;-2.70;99.90;;;;;;5014026;28;20117;-69
2021/01/09 07:13:14;;;;;;;1.63;1.20;;;-2.70;99.90;;;;;;5018911;28;20057;-69
2021/01/09 07:15:39;;;;;;;1.65;0.98;;;-2.60;99.90;;;;;;5012167;28;20061;-69
2021/01/09 07:18:06;;;;;;;0.30;0.30;;;-2.60;99.90;;;;;;5011823;28;20116;-68
2021/01/09 07:20:41;;;;;;;1.30;0.95;;;-2.60;99.90;;;;;;5011986;28;20022;-69
2021/01/09 07:23:09;;;;;;;0.73;0.73;;;-2.60;99.90;;;;;;4998277;28;20029;-68
2021/01/09 07:25:39;;;;;;;2.70;1.35;;;-2.60;99.90;;;;;;5011671;28;20026;-69
2021/01/09 07:28:15;;;;;;;0.82;0.82;;;-2.60;99.90;;;;;;5012158;28;20167;-69
2021/01/09 07:30:41;;;;;;;1.15;1.05;;;-2.60;99.90;;;;;;5010801;28;20742;-69
2021/01/09 07:33:09;;;;;;;2.60;1.35;;;-2.60;99.90;;;;;;5004293;28;20026;-69
2021/01/09 07:35:38;;;;;;;0.50;0.50;;;-2.70;99.90;;;;;;5021654;28;20042;-69
2021/01/09 07:38:06;;;;;;;1.48;1.38;;;-2.60;99.90;;;;;;5012359;28;20056;-68
2021/01/09 07:40:52;;;;;;;1.17;0.95;;;-2.60;99.90;;;;;;5020770;28;20034;-68
2021/01/09 07:43:36;;;;;;;0.93;0.93;;;-2.50;99.90;;;;;;5013019;28;20022;-69
2021/01/09 07:46:23;;;;;;;0.28;0.28;;;-2.40;99.90;;;;;;5011913;28;20042;-68
2021/01/09 07:48:49;;;;;;;1.00;1.00;;;-2.40;99.90;;;;;;5012071;28;20095;-69
2021/01/09 07:51:17;;;;;;;3.55;1.77;;;-2.30;99.90;;;;;;5010218;28;20092;-68
2021/01/09 07:53:48;;;;;;;1.38;1.27;;;-2.20;99.90;;;;;;5009187;28;20661;-69
2021/01/09 07:56:40;;;;;;;0.50;0.50;;;-2.10;99.90;;;;;;5012317;28;20026;-68
2021/01/09 07:59:06;;;;;;;1.08;0.75;;;-2.10;99.90;;;;;;5011573;28;20034;-68
2021/01/09 08:01:42;;;;;;;3.30;2.00;;;-2.10;99.90;;;;;;5009485;28;20095;-68
2021/01/09 08:04:10;;;;;;;1.70;1.00;;;-2.00;99.90;;;;;;5010952;28;20030;-68
2021/01/09 08:06:37;;;;;;;0.55;0.55;;;-2.00;99.90;;;;;;5021790;28;20365;-68
2021/01/09 08:09:04;;;;;;;0.77;0.77;;;-1.90;99.90;;;;;;5013098;28;20025;-69
2021/01/09 08:11:29;;;;;;;1.02;0.95;;;-1.90;99.90;;;;;;5017650;28;20211;-69
2021/01/09 08:14:02;;;;;;;0.53;0.53;;;-1.90;99.90;;;;;;5025186;28;20116;-69
2021/01/09 08:16:28;;;;;;;2.33;1.02;;;-1.80;99.90;;;;;;5016641;28;20049;-69
2021/01/09 08:19:09;;;;;;;1.70;1.60;;;-1.70;99.90;;;;;;5007236;28;20110;-70
2021/01/09 08:21:36;;;;;;;0.52;0.52;;;-1.60;99.90;;;;;;5013931;28;20435;-68
2021/01/09 08:24:02;;;;;;;1.60;1.30;;;-1.70;99.90;;;;;;5016352;28;20104;-69
2021/01/09 08:26:30;;;;;;;1.37;1.27;;;-1.70;99.90;;;;;;5016742;28;20435;-70
2021/01/09 08:28:58;;;;;;;4.78;1.30;;;-1.70;99.90;;;;;;5015532;28;20103;-69
2021/01/09 08:31:24;;;;;;;0.65;0.65;;;-1.70;99.90;;;;;;5014021;28;20285;-71
2021/01/09 08:33:50;;;;;;;0.68;0.68;;;-1.60;99.90;;;;;;5024564;28;20045;-70
2021/01/09 08:36:16;;;;;;;0.93;0.90;;;-1.50;99.90;;;;;;5018717;28;20041;-71
2021/01/09 08:38:43;;;;;;;1.00;1.00;;;-1.50;99.90;;;;;;5012764;28;20033;-70
2021/01/09 08:41:09;;;;;;;12.35;1.65;;;-1.40;99.90;;;;;;5013219;28;20030;-70
2021/01/09 08:43:34;;;;;;;0.47;0.47;;;-1.30;99.90;;;;;;5004128;28;20044;-70
2021/01/09 08:46:00;;;;;;;1.93;1.83;;;-1.20;99.90;;;;;;5014304;28;20030;-69
2021/01/09 08:48:33;;;;;;;2.80;1.43;;;-1.10;99.90;;;;;;5013589;28;20116;-70
2021/01/09 08:51:11;;;;;;;5.07;1.58;;;-1.10;99.90;;;;;;5013548;28;20033;-70
2021/01/09 08:53:42;;;;;;;1.98;1.85;;;-1.10;99.90;;;;;;5018528;28;20171;-70
2021/01/09 08:56:09;;;;;;;1.75;0.95;;;-1.00;99.90;;;;;;5013498;28;20060;-69
2021/01/09 08:58:38;;;;;;;1.13;1.03;;;-0.90;99.90;;;;;;5017903;28;20167;-70
2021/01/09 09:01:07;;;;;;;3.20;1.00;;;-0.80;99.90;;;;;;5015094;28;20350;-70
2021/01/09 09:03:35;;;;;;;0.75;0.75;;;-0.60;99.90;;;;;;5018124;28;20029;-71
2021/01/09 09:06:08;;;;;;;0.32;0.32;;;-0.50;99.90;;;;;;5016346;28;20119;-70
2021/01/09 09:08:35;;;;;;;0.85;0.85;;;-0.40;99.90;;;;;;5013561;28;20038;-71
2021/01/09 09:11:03;;;;;;;4.28;1.25;;;-0.40;99.90;;;;;;5019811;28;20378;-71
2021/01/09 09:13:28;;;;;;;0.63;0.63;;;-0.30;99.90;;;;;;5017737;28;20053;-71
2021/01/09 09:15:54;;;;;;;1.07;0.97;;;-0.30;99.90;;;;;;5017351;28;20053;-71
2021/01/09 09:18:20;;;;;;;0.57;0.57;;;-0.40;99.90;;;;;;5013527;28;20080;-71
2021/01/09 09:20:51;;;;;;;0.60;0.60;;;-0.40;99.90;;;;;;5010618;28;20026;-70
2021/01/09 09:23:26;;;;;;;1.05;1.05;;;-0.30;99.90;;;;;;5029880;28;20036;-70
2021/01/09 09:26:12;;;;;;;6.10;1.77;;;-0.30;99.90;;;;;;5013146;28;20025;-71
2021/01/09 09:28:54;;;;;;;1.27;1.17;;;-0.30;99.90;;;;;;5015929;28;20065;-70
2021/01/09 09:31:32;;;;;;;1.25;1.15;;;-0.40;99.90;;;;;;5012780;28;20342;-71
2021/01/09 09:34:10;;;;;;;1.10;1.08;;;-0.30;99.90;;;;;;5017921;28;20029;-71
2021/01/09 09:36:57;;;;;;;0.50;0.50;;;-0.30;99.90;;;;;;5012947;28;20052;-70
2021/01/09 09:39:27;;;;;;;0.82;0.82;;;-0.40;99.90;;;;;;5014243;28;20033;-70
2021/01/09 09:42:03;;;;;;;0.57;0.57;;;-0.40;99.90;;;;;;5016539;28;20026;-71
2021/01/09 09:44:38;;;;;;;1.10;1.02;;;-0.40;99.90;;;;;;5006318;28;20083;-70
2021/01/09 09:47:10;;;;;;;0.95;0.95;;;-0.30;99.90;;;;;;5031388;28;20037;-70
2021/01/09 09:49:38;;;;;;;1.77;1.52;;;-0.30;99.90;;;;;;5017513;28;20428;-71
2021/01/09 09:52:18;;;;;;;1.08;1.08;;;-0.20;99.90;;;;;;5040591;28;20041;-71
2021/01/09 09:54:44;;;;;;;0.98;0.85;;;-0.10;99.90;;;;;;5044827;28;20061;-70
2021/01/09 09:57:23;;;;;;;0.57;0.57;;;-0.10;99.90;;;;;;5026086;28;20492;-70
2021/01/09 10:00:15;;;;;;;0.93;0.75;;;0.00;99.90;;;;;;5024345;28;20152;-71
2021/01/09 10:02:54;;;;;;;2.38;1.50;;;0.10;99.90;;;;;;5028073;28;20144;-69
2021/01/09 10:05:20;;;;;;;0.40;0.40;;;0.30;99.90;;;;;;5033104;28;20033;-69
2021/01/09 10:07:46;;;;;;;1.23;1.13;;;0.30;99.90;;;;;;5025647;28;20045;-70
2021/01/09 10:10:19;;;;;;;0.77;0.77;;;0.40;99.90;;;;;;5027831;28;20068;-70
2021/01/09 10:12:58;;;;;;;0.60;0.60;;;0.40;99.90;;;;;;5027618;28;20057;-69
2021/01/09 10:15:25;;;;;;;3.00;1.48;;;0.40;99.90;;;;;;4979816;28;20390;-69
2021/01/09 10:17:58;;;;;;;1.10;1.10;;;0.50;99.90;;;;;;5018208;28;20033;-69
2021/01/09 10:20:24;;;;;;;1.27;1.20;;;0.50;99.90;;;;;;5017572;28;20029;-70
2021/01/09 10:22:50;;;;;;;1.80;1.70;;;0.60;99.90;;;;;;5017078;28;20105;-69
2021/01/09 10:25:16;;;;;;;3.90;2.20;;;0.70;99.90;;;;;;5018775;28;20167;-69
2021/01/09 10:27:42;;;;;;;2.88;2.33;;;0.70;99.90;;;;;;5016703;28;20034;-69
2021/01/09 10:30:08;;;;;;;32.07;1.47;;;0.70;99.90;;;;;;5016648;28;20037;-69
2021/01/09 10:32:34;;;;;;;3.10;1.67;;;0.90;99.90;;;;;;5011285;28;20144;-69
2021/01/09 10:34:59;;;;;;;0.97;0.90;;;0.90;99.90;;;;;;5011066;28;20104;-70
2021/01/09 10:37:25;;;;;;;1.17;1.17;;;1.00;99.90;;;;;;5012813;28;20046;-70
2021/01/09 10:39:51;;;;;;;1.40;1.30;;;1.10;99.90;;;;;;5013699;28;20034;-71
2021/01/09 10:42:16;;;;;;;1.20;1.17;;;1.20;99.90;;;;;;5028026;28;20040;-70
2021/01/09 10:44:42;;;;;;;1.07;0.87;;;1.30;99.90;;;;;;5010440;28;20101;-70
2021/01/09 10:47:08;;;;;;;1.43;1.20;;;1.40;99.90;;;;;;5009808;28;20041;-71
2021/01/09 10:49:34;;;;;;;1.17;1.17;;;1.60;99.90;;;;;;5006935;28;20057;-71
2021/01/09 10:51:59;;;;;;;1.40;1.33;;;1.70;99.90;;;;;;5016537;28;20052;-71
2021/01/09 10:54:25;;;;;;;0.70;0.70;;;1.90;99.90;;;;;;5016364;28;20171;-71
2021/01/09 10:56:51;;;;;;;1.97;0.57;;;2.10;99.90;;;;;;5017190;28;20022;-71
2021/01/09 10:59:17;;;;;;;0.97;0.97;;;2.40;99.90;;;;;;5018355;28;20076;-71
2021/01/09 11:01:42;;;;;;;2.53;0.73;;;2.60;99.90;;;;;;5018057;28;20112;-71
2021/01/09 11:04:08;;;;;;;0.53;0.53;;;2.70;99.90;;;;;;5015172;28;20065;-71
2021/01/09 11:06:34;;;;;;;0.40;0.40;;;2.80;99.90;;;;;;5018995;28;20038;-71
2021/01/09 11:09:00;;;;;;;0.83;0.83;;;2.80;99.90;;;;;;5017895;28;20044;-71
2021/01/09 11:11:25;;;;;;;1.77;1.27;;;3.00;99.90;;;;;;5011853;28;20058;-70
2021/01/09 11:13:51;;;;;;;0.80;0.70;;;3.10;99.90;;;;;;5016007;28;20104;-70
2021/01/09 11:16:21;;;;;;;3.60;1.57;;;3.40;99.90;;;;;;5008596;28;20040;-71
2021/01/09 11:18:47;;;;;;;1.23;1.13;;;3.60;99.90;;;;;;4999093;28;20435;-70
2021/01/09 11:21:14;;;;;;;0.80;0.73;;;3.60;99.90;;;;;;5019861;28;20033;-71
2021/01/09 11:23:42;;;;;;;3.17;2.05;;;3.90;99.90;;;;;;5009861;28;20155;-70
2021/01/09 11:26:09;;;;;;;0.52;0.52;;;4.00;99.90;;;;;;5012480;28;20490;-70
2021/01/09 11:28:35;;;;;;;0.10;0.10;;;4.00;99.90;;;;;;5011573;28;20037;-70
2021/01/09 11:31:00;;;;;;;0.23;0.23;;;3.90;99.90;;;;;;5013158;28;20314;-70
2021/01/09 11:33:26;;;;;;;0.10;0.10;;;3.80;99.90;;;;;;5010357;28;20026;-70
2021/01/09 11:35:51;;;;;;;0.10;0.10;;;3.70;99.90;;;;;;5012356;28;20022;-70
2021/01/09 11:38:17;;;;;;;0.17;0.17;;;3.70;99.90;;;;;;5026140;28;20498;-70
2021/01/09 11:40:43;;;;;;;0.00;0.00;;;3.60;99.90;;;;;;5012320;28;20076;-70
2021/01/09 11:43:08;;;;;;;0.57;0.57;;;3.60;99.90;;;;;;5014534;28;20435;-70
2021/01/09 11:45:35;;;;;;;0.10;0.10;;;3.60;99.90;;;;;;5016124;28;20337;-70
2021/01/09 11:48:00;;;;;;;0.87;0.43;;;3.70;99.90;;;;;;5017782;28;20032;-70
2021/01/09 11:50:26;;;;;;;1.00;0.90;;;3.90;99.90;;;;;;5019737;28;20278;-70
2021/01/09 11:52:51;;;;;;;1.40;1.07;;;4.10;99.90;;;;;;5021226;28;20420;-70
2021/01/09 11:55:17;;;;;;;0.20;0.20;;;4.10;99.90;;;;;;5035517;28;20051;-69
2021/01/09 11:57:43;;;;;;;0.07;0.07;;;4.20;99.90;;;;;;5021629;28;20070;-70
2021/01/09 12:00:10;;;;;;;0.10;0.10;;;4.20;99.90;;;;;;5028457;28;20033;-70
2021/01/09 12:02:37;;;;;;;;;;;4.20;99.90;;;;;;5037383;28;20038;-70
2021/01/09 12:05:05;;;;;;;0.00;0.00;;;4.00;99.90;;;;;;5017825;28;20025;-70
2021/01/09 12:07:31;;;;;;;0.70;0.70;;;3.90;99.90;;;;;;5019534;28;20034;-70
2021/01/09 12:09:56;;;;;;;0.00;0.00;;;3.70;99.90;;;;;;5019225;28;20424;-70
2021/01/09 12:12:22;;;;;;;0.07;0.07;;;3.70;99.90;;;;;;5016327;28;20060;-70
2021/01/09 12:14:48;;;;;;;0.10;0.10;;;3.80;99.90;;;;;;5032057;28;20026;-70
2021/01/09 12:17:13;;;;;;;0.75;0.28;;;3.90;99.90;;;;;;5030012;28;20105;-70
2021/01/09 12:19:39;;;;;;;0.65;0.45;;;4.10;99.90;;;;;;5005449;28;20022;-70
2021/01/09 12:22:05;;;;;;;0.00;0.00;;;4.30;99.90;;;;;;5028379;28;20037;-70
2021/01/09 12:24:30;;;;;;;0.70;0.40;;;4.40;99.90;;;;;;5003240;28;20428;-70
2021/01/09 12:26:56;;;;;;;0.10;0.10;;;4.50;99.90;;;;;;5014921;28;20112;-70
2021/01/09 12:29:22;;;;;;;0.00;0.00;;;4.60;99.90;;;;;;5014904;28;20076;-70
2021/01/09 12:31:49;;;;;;;0.20;0.15;;;4.70;99.90;;;;;;5014336;28;20030;-70
2021/01/09 12:34:16;;;;;;;9.80;1.35;;;4.70;99.90;;;;;;5015452;28;20109;-70
2021/01/09 12:36:42;;;;;;;;;;;4.80;99.90;;;;;;5014886;28;20133;-70
2021/01/09 12:39:08;;;;;;;0.20;0.20;;;4.90;99.90;;;;;;5014914;28;19917;-70
2021/01/09 12:41:38;;;;;;;2.50;0.87;;;5.00;99.90;;;;;;5015957;28;20040;-70
2021/01/09 12:44:05;;;;;;;0.90;0.90;;;5.00;99.90;;;;;;5022281;28;20025;-70
2021/01/09 12:46:42;;;;;;;;;;;5.00;99.90;;;;;;5012885;28;20034;-70
2021/01/09 12:49:17;;;;;;;0.38;0.38;;;5.10;99.90;;;;;;5025501;28;19914;-70
2021/01/09 12:51:44;;;;;;;0.45;0.43;;;5.10;99.90;;;;;;5012970;28;20040;-70
2021/01/09 12:54:10;;;;;;;1.35;0.82;;;5.20;99.90;;;;;;5023076;28;20018;-70
2021/01/09 12:56:35;;;;;;;0.20;0.20;;;5.20;99.90;;;;;;5015898;28;20033;-70